- বাংলা English

** ** Phone: +880 2 9135972, 9123838, 9141437 | Fax: +880 2 8118230, 9119230, 9103908 | E-mail: info@bmd.gov.bd , swc@bmd.gov.bd   | IVR: 1090 |

TAF

TAF VGHS 271100Z 2712/2818 16008KT 4000 HZ SCT015 BKN100
  TEMPO 2712/2718 30025G35KT 2000 RA/TSRA BKN007 FEW025 CB BKN090
  BECMG 2720/2722 06006KT 3500 HZ SCT012 BKN100
  TEMPO 2800/2810 30025G35KT SCT015 BKN100
  BECMG 2812/2814 08008KT 4000 HZ SCT015 BKN100=

TAF VGEG 271100Z 2712/2818 30010KT 5000 SCT018
  TEMPO 2718/2803 25025G35KT 2000 RA/TSRA BKN008 FEW027CB OVC090
  BECMG 2803/2805 22010KT 5000 SCT016
  BECMG 2811/2813 23008KT 4500 HZ SCT015
  BECMG 2816/2818 28008KT 4000 HZ SCT013=

TAF VGSY 271000Z  2712/2818 12006KT 5000HZ SCT015 BKN100 BECMG
2718/2720 06004KT 4000HZ SCT015 BKN100 BECMG 2723/2801 06005KT
3500HZ SCT012 BKN100  TEMPO 2712/2818 31035G45KT 1500 TSRA/RA
 BKN006 FEW025CB OVC 080=